Time;durP1;ratioP1;P1;durP2;ratioP2;P2;SDS_P1;SDS_P2;PMS_P1;PMS_P2;Temp;Humidity;BMP_temperature;BMP_pressure;BME280_temperature;BME280_humidity;BME280_pressure;Samples;Min_cycle;Max_cycle;Signal;HPM_P1;HPM_P2
2024/01/02 00:00:20;;;;;;;27.60;17.30;;;;;;;5.10;94.45;99564.11;111220;243;40395;-72
2024/01/02 00:03:14;;;;;;;28.30;18.30;;;;;;;5.11;94.69;99566.14;111229;243;38521;-71
2024/01/02 00:05:48;;;;;;;32.80;19.30;;;;;;;5.07;94.41;99569.04;111264;243;39739;-71
2024/01/02 00:08:22;;;;;;;33.10;19.90;;;;;;;5.03;94.38;99571.59;111248;243;38305;-71
2024/01/02 00:10:56;;;;;;;31.50;18.30;;;;;;;4.99;94.47;99570.30;111292;243;39961;-71
2024/01/02 00:13:30;;;;;;;34.70;19.20;;;;;;;4.96;94.45;99571.08;111246;243;38109;-73
2024/01/02 00:16:05;;;;;;;31.00;18.60;;;;;;;4.95;94.49;99568.85;111266;243;39296;-72
2024/01/02 00:18:39;;;;;;;29.20;17.80;;;;;;;4.96;94.78;99568.83;111108;243;175668;-71
2024/01/02 00:21:13;;;;;;;32.80;18.70;;;;;;;4.97;94.80;99568.30;111140;243;39753;-73
2024/01/02 00:23:47;;;;;;;35.20;19.40;;;;;;;4.99;95.16;99570.14;111026;243;39615;-73
2024/01/02 00:26:21;;;;;;;35.20;20.70;;;;;;;5.01;95.23;99575.27;111285;243;38443;-73
2024/01/02 00:28:55;;;;;;;29.70;17.80;;;;;;;5.00;95.12;99575.45;111245;243;38405;-73
2024/01/02 00:31:29;;;;;;;32.30;18.80;;;;;;;4.99;95.05;99576.54;111252;243;38675;-72
2024/01/02 00:34:03;;;;;;;30.40;18.30;;;;;;;5.00;94.92;99573.38;111020;243;38818;-72
2024/01/02 00:36:37;;;;;;;29.20;18.10;;;;;;;5.03;95.17;99576.25;111222;243;38393;-72
2024/01/02 00:39:11;;;;;;;27.30;17.80;;;;;;;5.08;95.35;99578.18;111239;243;38607;-72
2024/01/02 00:41:45;;;;;;;35.00;19.10;;;;;;;5.09;95.19;99581.77;111247;243;38468;-69
2024/01/02 00:44:19;;;;;;;33.60;19.20;;;;;;;5.07;95.03;99582.01;111206;243;38410;-72
2024/01/02 00:46:53;;;;;;;37.50;19.70;;;;;;;5.05;94.96;99584.83;111244;243;38321;-71
2024/01/02 00:49:28;;;;;;;28.50;17.30;;;;;;;5.05;94.93;99587.77;111244;243;40064;-69
2024/01/02 00:52:01;;;;;;;36.10;17.90;;;;;;;5.04;94.87;99586.60;111237;243;38859;-69
2024/01/02 00:54:35;;;;;;;29.00;17.40;;;;;;;5.05;94.88;99584.33;111265;243;38825;-71
2024/01/02 00:57:11;;;;;;;26.60;16.70;;;;;;;5.05;94.94;99585.87;111261;243;38394;-69
2024/01/02 00:59:46;;;;;;;31.50;17.70;;;;;;;5.05;95.11;99584.14;111024;243;38905;-72
2024/01/02 01:02:19;;;;;;;29.40;17.30;;;;;;;5.06;95.08;99584.11;111234;243;38245;-72
2024/01/02 01:04:54;;;;;;;29.00;16.80;;;;;;;5.04;94.94;99585.05;111290;243;38407;-72
2024/01/02 01:07:28;;;;;;;28.30;15.90;;;;;;;5.04;94.99;99589.02;111220;243;39063;-71
2024/01/02 01:10:02;;;;;;;25.80;15.10;;;;;;;5.04;94.85;99587.63;111251;242;38374;-70
2024/01/02 01:12:36;;;;;;;27.00;15.90;;;;;;;5.04;94.97;99588.31;111205;243;39447;-72
2024/01/02 01:15:12;;;;;;;27.90;16.10;;;;;;;5.06;95.13;99586.36;111271;243;38255;-71
2024/01/02 01:17:46;;;;;;;25.60;15.50;;;;;;;5.05;95.11;99585.69;111267;242;39490;-71
2024/01/02 01:20:21;;;;;;;30.40;14.70;;;;;;;5.06;95.18;99583.42;111137;243;172581;-72
2024/01/02 01:22:55;;;;;;;25.90;14.40;;;;;;;5.06;95.03;99582.21;111251;243;38483;-72
2024/01/02 01:25:29;;;;;;;23.30;15.10;;;;;;;5.07;95.19;99582.69;111268;243;38227;-71
2024/01/02 01:28:04;;;;;;;25.60;14.90;;;;;;;5.11;95.24;99579.81;111184;243;38343;-70
2024/01/02 01:30:38;;;;;;;28.30;15.00;;;;;;;5.12;95.28;99579.27;111249;243;38385;-71
2024/01/02 01:33:12;;;;;;;25.30;16.40;;;;;;;5.12;95.18;99580.48;111233;242;39478;-72
2024/01/02 01:35:46;;;;;;;27.30;15.80;;;;;;;5.11;95.06;99579.98;111261;243;39730;-72
2024/01/02 01:38:20;;;;;;;25.80;15.50;;;;;;;5.11;95.01;99577.90;111228;243;38795;-71
2024/01/02 01:40:54;;;;;;;26.60;16.40;;;;;;;5.13;95.03;99577.00;111251;243;38573;-70
2024/01/02 01:43:28;;;;;;;28.40;16.70;;;;;;;5.16;95.32;99582.44;111237;243;38706;-70
2024/01/02 01:46:03;;;;;;;28.90;16.20;;;;;;;5.17;95.16;99581.54;111307;242;39119;-73
2024/01/02 01:48:37;;;;;;;28.70;14.60;;;;;;;5.14;94.89;99580.24;111226;243;38243;-72
2024/01/02 01:51:11;;;;;;;29.40;16.30;;;;;;;5.14;95.12;99583.20;111261;243;38415;-71
2024/01/02 01:53:47;;;;;;;26.20;14.50;;;;;;;5.13;94.94;99578.04;111015;243;39654;-72
2024/01/02 01:56:21;;;;;;;25.60;15.10;;;;;;;5.12;94.73;99578.75;111259;243;38246;-71
2024/01/02 01:58:54;;;;;;;29.10;17.30;;;;;;;5.12;94.78;99581.35;111250;243;38852;-71
2024/01/02 02:01:29;;;;;;;25.50;15.60;;;;;;;5.13;94.98;99583.39;111001;243;38791;-72
2024/01/02 02:04:03;;;;;;;33.80;16.60;;;;;;;5.14;95.10;99580.41;110515;242;910848;-70
2024/01/02 02:06:37;;;;;;;25.10;15.60;;;;;;;5.15;95.01;99582.48;111230;243;39200;-71
2024/01/02 02:09:13;;;;;;;27.90;14.20;;;;;;;5.14;94.88;99582.15;111248;243;39829;-71
2024/01/02 02:11:47;;;;;;;28.80;14.80;;;;;;;5.14;94.63;99582.34;111260;243;38265;-71
2024/01/02 02:14:21;;;;;;;25.90;15.40;;;;;;;5.14;94.74;99582.67;111258;243;38986;-72
2024/01/02 02:16:55;;;;;;;26.80;15.20;;;;;;;5.16;95.03;99582.79;111253;243;38306;-71
2024/01/02 02:19:29;;;;;;;25.90;15.10;;;;;;;5.14;94.74;99586.66;111197;243;38460;-71
2024/01/02 02:22:03;;;;;;;25.10;14.30;;;;;;;5.14;95.02;99586.48;111215;243;38377;-71
2024/01/02 02:24:40;;;;;;;26.90;14.50;;;;;;;5.16;95.11;99587.45;111199;243;38248;-72
2024/01/02 02:27:14;;;;;;;23.60;14.20;;;;;;;5.20;95.17;99586.48;111117;243;38449;-71
2024/01/02 02:29:48;;;;;;;22.80;13.50;;;;;;;5.22;95.10;99588.84;111259;243;39518;-71
2024/01/02 02:32:22;;;;;;;24.60;15.80;;;;;;;5.21;94.96;99588.00;111243;243;39292;-71
2024/01/02 02:34:56;;;;;;;27.50;15.00;;;;;;;5.22;95.26;99587.80;111196;243;39333;-69
2024/01/02 02:37:31;;;;;;;26.10;14.70;;;;;;;5.23;95.09;99585.02;111007;243;38584;-68
2024/01/02 02:40:06;;;;;;;22.20;13.40;;;;;;;5.22;94.90;99584.17;111235;243;38120;-71
2024/01/02 02:42:40;;;;;;;23.30;14.00;;;;;;;5.22;95.03;99585.22;111247;243;38550;-72
2024/01/02 02:45:15;;;;;;;31.20;14.40;;;;;;;5.24;94.94;99585.18;111244;242;39733;-71
2024/01/02 02:47:49;;;;;;;23.40;13.30;;;;;;;5.21;94.77;99581.42;111258;243;39168;-70
2024/01/02 02:50:22;;;;;;;21.40;13.60;;;;;;;5.18;94.79;99582.73;111306;242;39372;-70
2024/01/02 02:52:56;;;;;;;23.20;13.30;;;;;;;5.17;94.97;99582.05;111210;243;38495;-71
2024/01/02 02:55:30;;;;;;;23.60;12.30;;;;;;;5.20;95.15;99580.77;111032;243;39218;-71
2024/01/02 02:58:04;;;;;;;22.90;13.30;;;;;;;5.25;95.26;99584.45;111213;243;38476;-70
2024/01/02 03:00:38;;;;;;;27.60;13.40;;;;;;;5.23;94.99;99585.38;111263;243;39535;-72
2024/01/02 03:03:12;;;;;;;21.30;12.40;;;;;;;5.23;95.18;99583.98;111237;242;39498;-72
2024/01/02 03:05:46;;;;;;;27.00;12.50;;;;;;;5.22;95.10;99583.83;111246;243;38255;-72
2024/01/02 03:08:20;;;;;;;24.20;13.40;;;;;;;5.20;95.09;99580.25;111236;242;38526;-70
2024/01/02 03:10:58;;;;;;;21.10;12.30;;;;;;;5.20;94.95;99583.55;111240;243;39771;-71
2024/01/02 03:13:32;;;;;;;21.00;11.90;;;;;;;5.20;95.04;99578.88;111209;243;38214;-71
2024/01/02 03:16:10;;;;;;;20.60;12.00;;;;;;;5.22;95.29;99580.56;111234;243;38318;-72
2024/01/02 03:18:45;;;;;;;22.10;11.90;;;;;;;5.25;95.41;99582.20;111276;243;38696;-71
2024/01/02 03:21:23;;;;;;;23.10;11.80;;;;;;;5.25;95.37;99581.67;111126;242;188937;-70
2024/01/02 03:23:58;;;;;;;20.50;12.60;;;;;;;5.25;95.32;99578.38;111257;243;38887;-72
2024/01/02 03:26:32;;;;;;;19.80;11.80;;;;;;;5.26;95.40;99583.19;111138;243;190013;-71
2024/01/02 03:29:15;;;;;;;20.50;11.80;;;;;;;5.27;95.22;99584.04;111236;243;38227;-69
2024/01/02 03:31:50;;;;;;;21.00;11.70;;;;;;;5.27;95.07;99578.15;111251;243;38513;-72
2024/01/02 03:34:24;;;;;;;20.20;11.80;;;;;;;5.25;95.05;99575.98;110987;243;38426;-69
2024/01/02 03:36:57;;;;;;;21.70;12.00;;;;;;;5.26;95.42;99570.90;111299;243;38745;-71
2024/01/02 03:39:32;;;;;;;19.30;11.10;;;;;;;5.26;95.33;99573.69;111289;243;38567;-71
2024/01/02 03:42:07;;;;;;;16.00;10.30;;;;;;;5.27;95.36;99573.14;111263;242;38708;-73
2024/01/02 03:44:42;;;;;;;19.90;11.20;;;;;;;5.27;95.20;99571.75;111151;243;38562;-73
2024/01/02 03:47:15;;;;;;;17.20;10.90;;;;;;;5.28;95.29;99572.24;111245;243;38272;-73
2024/01/02 03:49:49;;;;;;;21.40;11.60;;;;;;;5.28;95.27;99575.73;111251;243;38307;-71
2024/01/02 03:52:23;;;;;;;18.60;10.60;;;;;;;5.27;95.36;99573.65;111238;243;39743;-71
2024/01/02 03:54:57;;;;;;;18.20;10.40;;;;;;;5.26;95.32;99572.98;111272;243;38753;-71
2024/01/02 03:57:33;;;;;;;18.20;10.10;;;;;;;5.31;95.70;99572.52;111226;243;38350;-72
2024/01/02 04:00:11;;;;;;;15.20;9.80;;;;;;;5.32;95.27;99569.36;111235;243;38562;-70
2024/01/02 04:02:45;;;;;;;18.60;10.70;;;;;;;5.29;95.16;99571.52;111194;243;39411;-70
2024/01/02 04:05:39;;;;;;;20.20;10.60;;;;;;;5.29;95.36;99569.64;111218;243;38633;-71
2024/01/02 04:08:13;;;;;;;15.90;10.30;;;;;;;5.29;95.38;99574.65;111210;243;39885;-70
2024/01/02 04:10:47;;;;;;;16.50;9.80;;;;;;;5.29;95.57;99571.20;111265;243;38310;-70
2024/01/02 04:13:23;;;;;;;17.40;9.60;;;;;;;5.30;95.46;99572.20;111004;243;39498;-71
2024/01/02 04:15:57;;;;;;;16.10;9.40;;;;;;;5.31;95.37;99571.46;111230;243;38264;-70
2024/01/02 04:18:31;;;;;;;17.50;9.50;;;;;;;5.32;95.61;99576.27;111242;243;38548;-70
2024/01/02 04:21:05;;;;;;;18.10;10.60;;;;;;;5.34;95.57;99569.48;111198;243;39265;-71
2024/01/02 04:23:39;;;;;;;19.70;10.80;;;;;;;5.31;95.33;99575.59;111216;243;38233;-71
2024/01/02 04:26:13;;;;;;;17.20;8.60;;;;;;;5.28;95.28;99572.27;111126;243;172389;-71
2024/01/02 04:28:47;;;;;;;16.30;9.10;;;;;;;5.27;95.60;99566.74;111241;243;40170;-71
2024/01/02 04:31:21;;;;;;;18.50;9.90;;;;;;;5.32;95.77;99567.63;111262;243;38797;-72
2024/01/02 04:33:55;;;;;;;14.90;9.60;;;;;;;5.36;95.89;99571.48;111202;243;38903;-71
2024/01/02 04:36:28;;;;;;;18.60;10.20;;;;;;;5.36;95.78;99568.89;111278;243;38229;-72
2024/01/02 04:39:03;;;;;;;16.10;9.40;;;;;;;5.36;95.76;99569.92;111202;243;39099;-71
2024/01/02 04:41:37;;;;;;;16.10;8.90;;;;;;;5.36;95.70;99566.13;111235;243;38571;-73
2024/01/02 04:44:10;;;;;;;16.50;9.30;;;;;;;5.37;95.70;99564.54;111262;243;38497;-72
2024/01/02 04:46:44;;;;;;;14.30;9.00;;;;;;;5.38;95.73;99568.14;111225;243;38803;-72
2024/01/02 04:49:18;;;;;;;17.50;9.20;;;;;;;5.41;95.88;99568.75;111221;243;38575;-73
2024/01/02 04:51:52;;;;;;;15.70;10.30;;;;;;;5.42;95.96;99568.88;111259;243;39705;-72
2024/01/02 04:54:27;;;;;;;15.20;9.80;;;;;;;5.44;96.10;99567.62;111194;243;38450;-72
2024/01/02 04:57:01;;;;;;;16.50;9.10;;;;;;;5.45;96.00;99568.11;111235;243;38517;-71
2024/01/02 04:59:36;;;;;;;14.00;8.60;;;;;;;5.44;95.79;99567.26;111216;243;38304;-71
2024/01/02 05:02:11;;;;;;;17.00;9.70;;;;;;;5.45;95.72;99567.77;111240;243;38194;-71
2024/01/02 05:04:45;;;;;;;16.80;9.70;;;;;;;5.44;95.72;99572.45;111031;243;38317;-71
2024/01/02 05:07:19;;;;;;;21.00;10.00;;;;;;;5.44;95.84;99568.12;111270;243;38496;-72
2024/01/02 05:09:53;;;;;;;16.40;9.60;;;;;;;5.42;95.78;99574.41;111266;243;38966;-71
2024/01/02 05:12:27;;;;;;;19.80;9.80;;;;;;;5.42;95.83;99575.30;111198;243;38332;-71
2024/01/02 05:15:00;;;;;;;18.10;10.40;;;;;;;5.43;95.84;99577.69;111244;243;38307;-72
2024/01/02 05:17:34;;;;;;;15.50;9.50;;;;;;;5.44;95.75;99575.41;111247;243;38255;-71
2024/01/02 05:20:10;;;;;;;17.50;10.00;;;;;;;5.45;95.65;99575.20;111271;243;38815;-72
2024/01/02 05:22:44;;;;;;;19.20;10.30;;;;;;;5.43;95.77;99576.27;111237;243;39543;-72
2024/01/02 05:25:18;;;;;;;26.20;13.80;;;;;;;5.43;95.83;99577.33;111245;243;38419;-73
2024/01/02 05:27:53;;;;;;;19.80;11.20;;;;;;;5.43;95.77;99578.39;111265;243;38488;-71
2024/01/02 05:30:27;;;;;;;16.80;10.70;;;;;;;5.44;95.78;99576.79;111266;243;39440;-71
2024/01/02 05:33:01;;;;;;;15.20;9.70;;;;;;;5.47;95.91;99574.80;111259;243;38818;-72
2024/01/02 05:35:35;;;;;;;15.50;10.40;;;;;;;5.49;96.01;99584.26;111228;243;38395;-71
2024/01/02 05:38:10;;;;;;;17.00;10.90;;;;;;;5.49;96.09;99583.36;111240;243;38362;-72
2024/01/02 05:40:44;;;;;;;19.30;11.20;;;;;;;5.51;96.13;99582.30;111247;243;39847;-73
2024/01/02 05:43:18;;;;;;;16.00;10.50;;;;;;;5.52;96.04;99584.88;111202;243;38850;-72
2024/01/02 05:45:51;;;;;;;17.40;10.60;;;;;;;5.53;95.95;99586.21;111235;243;38245;-72
2024/01/02 05:48:26;;;;;;;16.40;10.70;;;;;;;5.54;95.86;99584.45;111264;243;38370;-73
2024/01/02 05:51:00;;;;;;;17.40;11.80;;;;;;;5.55;95.97;99586.30;111324;243;40258;-73
2024/01/02 05:53:33;;;;;;;16.80;10.50;;;;;;;5.56;96.01;99587.48;111265;243;38609;-73
2024/01/02 05:56:08;;;;;;;18.90;11.40;;;;;;;5.55;95.89;99586.80;111270;243;38423;-73
2024/01/02 05:58:42;;;;;;;15.70;10.70;;;;;;;5.54;95.83;99590.68;111239;243;38415;-73
2024/01/02 06:01:16;;;;;;;14.40;9.50;;;;;;;5.55;95.93;99591.68;111107;242;175660;-73
2024/01/02 06:03:50;;;;;;;13.80;9.80;;;;;;;5.58;96.07;99591.25;111234;243;39744;-70
2024/01/02 06:06:24;;;;;;;17.60;10.20;;;;;;;5.58;95.83;99589.52;111231;243;38229;-73
2024/01/02 06:08:58;;;;;;;15.20;10.40;;;;;;;5.57;95.80;99584.70;111239;242;38929;-72
2024/01/02 06:11:33;;;;;;;16.10;10.90;;;;;;;5.56;95.83;99586.63;111234;243;39712;-73
2024/01/02 06:14:11;;;;;;;13.90;9.90;;;;;;;5.56;95.99;99589.90;111223;243;38305;-73
2024/01/02 06:16:45;;;;;;;16.20;10.40;;;;;;;5.58;95.93;99589.18;111196;243;39478;-73
2024/01/02 06:19:19;;;;;;;17.00;10.30;;;;;;;5.58;96.09;99588.98;111235;243;38898;-73
2024/01/02 06:21:53;;;;;;;15.50;11.10;;;;;;;5.61;96.12;99589.25;111268;242;38341;-72
2024/01/02 06:24:27;;;;;;;14.30;10.50;;;;;;;5.63;96.20;99587.46;111259;243;39060;-73
2024/01/02 06:27:01;;;;;;;15.50;11.00;;;;;;;5.62;96.15;99588.53;111114;243;38255;-73
2024/01/02 06:29:36;;;;;;;15.00;10.70;;;;;;;5.61;96.03;99591.32;111265;243;39435;-73
2024/01/02 06:32:11;;;;;;;15.50;11.00;;;;;;;5.60;95.92;99595.52;111142;243;175599;-72
2024/01/02 06:34:45;;;;;;;15.70;10.80;;;;;;;5.60;95.88;99599.16;111251;243;38582;-73
2024/01/02 06:37:20;;;;;;;15.80;10.90;;;;;;;5.57;95.77;99601.84;111276;243;38292;-74
2024/01/02 06:39:55;;;;;;;17.80;11.60;;;;;;;5.58;96.01;99603.19;110593;243;907310;-73
2024/01/02 06:42:29;;;;;;;15.20;11.00;;;;;;;5.58;96.23;99601.11;111239;243;38522;-72
2024/01/02 06:45:03;;;;;;;16.40;11.60;;;;;;;5.57;96.10;99602.52;111220;243;38425;-74
2024/01/02 06:47:37;;;;;;;14.00;10.30;;;;;;;5.58;96.16;99604.75;111224;243;38352;-73
2024/01/02 06:50:12;;;;;;;16.10;10.60;;;;;;;5.59;96.08;99605.23;111282;243;38406;-73
2024/01/02 06:52:46;;;;;;;14.10;10.80;;;;;;;5.60;96.17;99601.36;111223;242;38375;-73
2024/01/02 06:55:21;;;;;;;16.60;11.10;;;;;;;5.61;96.13;99597.70;111037;243;39107;-72
2024/01/02 06:57:55;;;;;;;13.70;9.90;;;;;;;5.59;96.00;99600.39;111250;243;39241;-72
2024/01/02 07:00:29;;;;;;;13.00;9.30;;;;;;;5.57;95.90;99605.30;111295;242;39600;-72
2024/01/02 07:03:04;;;;;;;15.20;10.00;;;;;;;5.53;95.55;99607.83;111141;243;175582;-72
2024/01/02 07:05:39;;;;;;;13.20;8.90;;;;;;;5.52;95.61;99608.38;111283;243;39444;-73
2024/01/02 07:08:14;;;;;;;13.10;9.50;;;;;;;5.52;95.72;99604.75;111190;243;39706;-73
2024/01/02 07:10:48;;;;;;;11.70;9.30;;;;;;;5.51;95.99;99600.45;111270;243;39438;-71
2024/01/02 07:13:22;;;;;;;12.60;9.50;;;;;;;5.53;96.20;99602.13;111258;242;39074;-72
2024/01/02 07:15:56;;;;;;;12.20;8.60;;;;;;;5.52;95.95;99603.71;111259;243;39505;-73
2024/01/02 07:18:30;;;;;;;12.00;8.90;;;;;;;5.52;95.96;99599.41;111239;243;40089;-73
2024/01/02 07:21:04;;;;;;;12.40;9.00;;;;;;;5.55;96.21;99600.52;110579;243;907641;-72
2024/01/02 07:23:38;;;;;;;11.90;8.60;;;;;;;5.56;96.26;99599.95;111249;243;38659;-72
2024/01/02 07:26:12;;;;;;;11.70;9.30;;;;;;;5.57;96.26;99597.85;111283;243;38430;-72
2024/01/02 07:28:46;;;;;;;12.10;9.00;;;;;;;5.57;96.35;99593.17;111228;243;38271;-74
2024/01/02 07:31:20;;;;;;;11.60;8.50;;;;;;;5.57;96.16;99590.93;111211;243;38346;-73
2024/01/02 07:33:54;;;;;;;10.80;8.20;;;;;;;5.56;95.98;99590.27;111263;243;38564;-72
2024/01/02 07:36:27;;;;;;;10.10;8.10;;;;;;;5.56;96.01;99594.23;111219;243;38213;-72
2024/01/02 07:39:03;;;;;;;10.70;8.40;;;;;;;5.58;96.15;99595.39;111230;243;38943;-73
2024/01/02 07:41:37;;;;;;;13.60;8.40;;;;;;;5.59;96.37;99597.27;111287;243;39677;-71
2024/01/02 07:44:11;;;;;;;11.50;8.70;;;;;;;5.60;96.38;99599.11;110845;243;517184;-72
2024/01/02 07:46:46;;;;;;;13.80;8.50;;;;;;;5.62;96.39;99601.33;111244;243;38293;-70
2024/01/02 07:49:22;;;;;;;10.50;7.40;;;;;;;5.65;96.46;99596.73;110988;243;39250;-74
2024/01/02 07:51:56;;;;;;;7.90;6.80;;;;;;;5.66;96.32;99600.34;111264;243;38259;-72
2024/01/02 07:54:30;;;;;;;9.20;8.20;;;;;;;5.68;96.21;99601.13;111256;243;39475;-72
2024/01/02 07:57:05;;;;;;;9.70;7.70;;;;;;;5.67;95.95;99601.17;111222;243;39514;-74
2024/01/02 07:59:40;;;;;;;9.10;7.40;;;;;;;5.65;96.09;99600.19;111245;243;38234;-72
2024/01/02 08:02:14;;;;;;;10.90;6.90;;;;;;;5.62;95.89;99602.55;111228;243;38818;-71
2024/01/02 08:04:51;;;;;;;9.20;6.80;;;;;;;5.61;96.01;99602.91;111263;243;39017;-72
2024/01/02 08:07:27;;;;;;;8.90;7.40;;;;;;;5.62;96.02;99606.16;111226;243;39040;-74
2024/01/02 08:10:01;;;;;;;10.20;7.50;;;;;;;5.64;96.12;99608.37;111252;243;38555;-74
2024/01/02 08:12:35;;;;;;;8.50;7.70;;;;;;;5.65;96.33;99606.95;111255;243;38758;-74
2024/01/02 08:15:12;;;;;;;9.80;8.00;;;;;;;5.65;96.31;99604.86;111254;243;38545;-72
2024/01/02 08:17:46;;;;;;;10.10;7.90;;;;;;;5.65;96.24;99604.52;111032;243;38306;-76
2024/01/02 08:20:20;;;;;;;9.90;7.80;;;;;;;5.66;96.20;99606.57;111282;242;38331;-74
2024/01/02 08:22:55;;;;;;;8.10;7.20;;;;;;;5.68;96.20;99605.64;111240;242;38332;-74
2024/01/02 08:25:29;;;;;;;9.00;7.80;;;;;;;5.69;96.18;99603.70;110990;243;39637;-74
2024/01/02 08:28:07;;;;;;;9.30;8.30;;;;;;;5.70;96.30;99599.02;111232;243;38467;-73
2024/01/02 08:30:42;;;;;;;10.00;8.40;;;;;;;5.69;96.29;99598.52;111242;243;38287;-73
2024/01/02 08:33:16;;;;;;;11.00;7.90;;;;;;;5.72;96.49;99600.85;111246;243;38304;-74
2024/01/02 08:35:50;;;;;;;9.40;7.70;;;;;;;5.77;96.69;99600.02;111227;243;38565;-74
2024/01/02 08:38:24;;;;;;;10.00;8.10;;;;;;;5.82;96.56;99601.26;111092;243;172872;-75
2024/01/02 08:40:58;;;;;;;10.60;8.70;;;;;;;5.83;96.42;99600.89;111184;243;38321;-74
2024/01/02 08:43:32;;;;;;;14.30;10.40;;;;;;;5.81;96.06;99603.18;111215;243;38296;-74
2024/01/02 08:46:06;;;;;;;13.90;9.80;;;;;;;5.78;96.16;99609.15;111223;243;40180;-74
2024/01/02 08:48:40;;;;;;;13.10;10.20;;;;;;;5.81;96.44;99607.33;111146;243;39047;-73
2024/01/02 08:51:14;;;;;;;12.70;9.50;;;;;;;5.83;96.46;99606.38;111210;243;38527;-73
2024/01/02 08:53:48;;;;;;;11.10;9.30;;;;;;;5.88;96.45;99607.65;111238;243;39736;-74
2024/01/02 08:56:22;;;;;;;14.50;10.20;;;;;;;5.89;96.43;99606.05;111298;243;39235;-74
2024/01/02 08:58:56;;;;;;;12.50;10.10;;;;;;;5.91;96.40;99606.17;111205;242;38836;-74
2024/01/02 09:01:30;;;;;;;12.60;9.90;;;;;;;5.89;96.30;99606.02;111240;243;38548;-75
2024/01/02 09:04:06;;;;;;;12.70;10.90;;;;;;;5.90;96.38;99607.92;111213;243;39616;-74
2024/01/02 09:06:40;;;;;;;13.00;10.10;;;;;;;5.91;96.35;99608.23;111227;243;40197;-74
2024/01/02 09:09:15;;;;;;;11.60;10.00;;;;;;;5.93;96.20;99604.58;111235;243;38325;-74
2024/01/02 09:11:49;;;;;;;12.60;10.80;;;;;;;5.93;96.18;99604.23;111266;243;39044;-74
2024/01/02 09:14:23;;;;;;;16.70;10.90;;;;;;;5.95;96.44;99610.91;111211;243;38873;-75
2024/01/02 09:16:57;;;;;;;13.80;11.00;;;;;;;5.96;96.30;99612.79;111262;243;38880;-72
2024/01/02 09:19:31;;;;;;;13.00;11.00;;;;;;;5.98;96.70;99615.14;111223;243;38218;-74
2024/01/02 09:22:05;;;;;;;12.40;10.20;;;;;;;6.05;96.91;99617.17;111263;242;39030;-73
2024/01/02 09:24:42;;;;;;;13.20;11.00;;;;;;;6.10;96.88;99622.73;111219;243;38500;-75
2024/01/02 09:27:16;;;;;;;15.20;12.10;;;;;;;6.15;96.91;99622.90;111296;242;38412;-74
2024/01/02 09:29:50;;;;;;;14.60;11.90;;;;;;;6.18;96.77;99622.10;110996;243;38278;-69
2024/01/02 09:32:24;;;;;;;17.00;12.90;;;;;;;6.23;97.02;99623.55;111249;243;38450;-71
2024/01/02 09:34:58;;;;;;;13.10;11.70;;;;;;;6.25;96.77;99623.46;111298;243;38706;-72
2024/01/02 09:37:33;;;;;;;15.40;12.20;;;;;;;6.27;96.73;99622.73;111248;243;38216;-73
2024/01/02 09:40:21;;;;;;;13.60;12.20;;;;;;;6.31;96.72;99620.33;111151;243;188948;-73
2024/01/02 09:43:01;;;;;;;17.90;13.60;;;;;;;6.33;96.67;99622.15;111228;243;39582;-72
2024/01/02 09:45:42;;;;;;;17.60;14.00;;;;;;;6.40;97.12;99620.56;111265;243;38690;-72
2024/01/02 09:48:38;;;;;;;18.80;14.50;;;;;;;6.44;96.94;99625.78;111239;243;38645;-70
2024/01/02 09:51:20;;;;;;;18.10;12.80;;;;;;;6.45;96.75;99625.56;111286;243;38762;-72
2024/01/02 09:54:28;;;;;;;15.30;12.30;;;;;;;6.48;96.65;99625.46;111112;243;175551;-73
2024/01/02 09:57:05;;;;;;;14.80;11.80;;;;;;;6.54;96.50;99628.56;110841;243;189145;-71
2024/01/02 09:59:51;;;;;;;15.10;13.10;;;;;;;6.54;96.28;99625.80;110537;243;910059;-71
2024/01/02 10:02:38;;;;;;;18.50;14.10;;;;;;;6.52;95.97;99628.64;111208;243;38295;-72
2024/01/02 10:05:20;;;;;;;15.80;13.20;;;;;;;6.47;95.64;99623.78;111274;243;38581;-72
2024/01/02 10:08:21;;;;;;;20.10;13.30;;;;;;;6.44;95.68;99626.99;111227;243;38773;-72
2024/01/02 10:11:00;;;;;;;17.10;13.00;;;;;;;6.42;95.71;99625.86;111264;243;39743;-72
2024/01/02 10:13:37;;;;;;;14.50;12.90;;;;;;;6.43;95.80;99625.98;111311;243;39028;-72
2024/01/02 10:16:18;;;;;;;16.20;12.50;;;;;;;6.45;95.99;99626.25;111289;243;39403;-71
2024/01/02 10:19:02;;;;;;;16.70;13.90;;;;;;;6.47;95.91;99621.01;111228;243;38465;-70
2024/01/02 10:21:46;;;;;;;17.40;13.50;;;;;;;6.42;95.57;99615.81;111226;243;39966;-71
2024/01/02 10:24:30;;;;;;;14.60;11.90;;;;;;;6.42;95.75;99615.13;111227;243;39271;-71
2024/01/02 10:27:12;;;;;;;14.40;11.80;;;;;;;6.39;95.57;99607.23;111245;243;40002;-72
2024/01/02 10:29:58;;;;;;;16.30;11.90;;;;;;;6.42;95.91;99599.67;111248;243;39940;-71
2024/01/02 10:32:41;;;;;;;16.50;12.80;;;;;;;6.49;96.16;99598.43;111223;243;39103;-71
2024/01/02 10:35:19;;;;;;;14.60;12.40;;;;;;;6.52;96.25;99589.83;111237;243;38555;-69
2024/01/02 10:38:05;;;;;;;15.90;12.10;;;;;;;6.52;96.02;99585.17;111225;243;38236;-72
2024/01/02 10:40:40;;;;;;;14.80;11.60;;;;;;;6.50;95.75;99583.48;111254;243;38830;-72
2024/01/02 10:43:25;;;;;;;13.70;11.40;;;;;;;6.49;95.72;99576.26;111269;243;38246;-72
2024/01/02 10:46:05;;;;;;;13.00;11.20;;;;;;;6.52;95.75;99578.23;111249;243;38572;-72
2024/01/02 10:48:52;;;;;;;14.40;11.90;;;;;;;6.53;95.80;99573.33;111137;243;38603;-72
2024/01/02 10:51:33;;;;;;;16.20;13.20;;;;;;;6.52;95.90;99569.89;111256;243;39802;-71
2024/01/02 10:54:13;;;;;;;15.40;12.20;;;;;;;6.54;95.88;99563.42;111251;242;38966;-71
2024/01/02 10:56:53;;;;;;;14.10;12.00;;;;;;;6.52;95.65;99561.25;111241;242;38608;-71
2024/01/02 10:59:47;;;;;;;14.10;11.50;;;;;;;6.52;95.63;99558.83;111265;243;38423;-71
2024/01/02 11:02:34;;;;;;;16.50;12.40;;;;;;;6.54;95.62;99553.02;111243;243;38492;-71
2024/01/02 11:05:13;;;;;;;17.00;12.90;;;;;;;6.57;95.93;99551.02;111231;242;39999;-72
2024/01/02 11:07:50;;;;;;;15.00;13.40;;;;;;;6.58;95.96;99551.33;111213;243;39863;-71
2024/01/02 11:10:25;;;;;;;14.70;12.80;;;;;;;6.57;95.89;99554.30;111241;243;38493;-71
2024/01/02 11:13:07;;;;;;;13.80;12.00;;;;;;;6.57;95.71;99553.79;111217;243;38376;-70
2024/01/02 11:15:42;;;;;;;15.60;11.80;;;;;;;6.55;95.51;99551.60;110981;243;38639;-71
2024/01/02 11:18:16;;;;;;;13.90;11.30;;;;;;;6.58;95.68;99548.54;111260;243;38295;-72
2024/01/02 11:20:56;;;;;;;14.50;12.70;;;;;;;6.57;95.41;99546.34;111246;243;40053;-72
2024/01/02 11:23:33;;;;;;;16.80;13.30;;;;;;;6.56;95.57;99548.98;111260;243;38662;-73
2024/01/02 11:26:15;;;;;;;16.50;13.10;;;;;;;6.57;95.68;99545.83;111283;243;39319;-73
2024/01/02 11:28:51;;;;;;;16.40;12.40;;;;;;;6.56;95.47;99544.48;110531;242;908069;-71
2024/01/02 11:31:25;;;;;;;15.80;12.10;;;;;;;6.54;95.26;99550.27;110548;243;907177;-72
2024/01/02 11:34:09;;;;;;;13.60;12.20;;;;;;;6.54;95.36;99547.65;111266;243;38393;-72
2024/01/02 11:36:53;;;;;;;17.50;13.00;;;;;;;6.52;95.17;99543.73;111277;243;38226;-71
2024/01/02 11:39:36;;;;;;;15.80;14.10;;;;;;;6.52;95.41;99541.66;111262;243;38777;-70
2024/01/02 11:42:18;;;;;;;16.30;13.50;;;;;;;6.51;95.43;99536.84;111203;243;38535;-71
2024/01/02 11:44:57;;;;;;;13.60;12.00;;;;;;;6.49;95.34;99534.81;111235;243;39097;-72
2024/01/02 11:47:38;;;;;;;14.60;12.30;;;;;;;6.45;95.09;99530.11;110558;243;908818;-71
2024/01/02 11:50:13;;;;;;;13.00;11.10;;;;;;;6.48;95.33;99526.38;111225;243;38259;-71
2024/01/02 11:52:58;;;;;;;14.80;12.10;;;;;;;6.48;95.46;99525.52;111254;243;39498;-71
2024/01/02 11:55:45;;;;;;;14.90;13.10;;;;;;;6.50;95.70;99527.16;111258;243;38471;-71
2024/01/02 11:58:33;;;;;;;16.00;12.80;;;;;;;6.52;95.72;99525.56;111206;243;39312;-71
2024/01/02 12:01:20;;;;;;;13.90;12.10;;;;;;;6.52;95.69;99524.52;111227;243;39174;-71
2024/01/02 12:04:08;;;;;;;14.30;11.70;;;;;;;6.54;95.87;99516.29;111249;243;38827;-71
2024/01/02 12:06:49;;;;;;;16.60;12.90;;;;;;;6.60;95.87;99514.02;111199;243;38239;-72